Time;durP1;ratioP1;P1;durP2;ratioP2;P2;SDS_P1;SDS_P2;PMS_P1;PMS_P2;Temp;Humidity;BMP_temperature;BMP_pressure;BME280_temperature;BME280_humidity;BME280_pressure;Samples;Min_cycle;Max_cycle;Signal;HPM_P1;HPM_P2
2023/10/24 00:03:59;;;;;;;3.13;1.92;;;;;;;14.24;91.65;99186.59;10396535;28;20041;-69
2023/10/24 00:09:04;;;;;;;2.90;1.83;;;;;;;14.25;92.28;99180.25;10402875;28;20409;-69
2023/10/24 00:14:06;;;;;;;2.83;1.95;;;;;;;14.27;92.39;99192.44;10398807;28;20077;-69
2023/10/24 00:19:07;;;;;;;3.25;2.60;;;;;;;14.28;91.85;99167.34;10396516;28;20095;-69
2023/10/24 00:24:09;;;;;;;5.05;2.75;;;;;;;14.22;92.14;99151.16;10398780;28;20048;-70
2023/10/24 00:29:11;;;;;;;3.38;2.30;;;;;;;14.30;92.61;99159.94;10402616;28;20538;-69
2023/10/24 00:34:12;;;;;;;4.43;2.63;;;;;;;14.27;91.68;99183.56;10396591;28;20048;-69
2023/10/24 00:39:14;;;;;;;3.38;2.60;;;;;;;14.24;92.75;99183.91;10398316;28;20135;-70
2023/10/24 00:44:15;;;;;;;3.85;2.95;;;;;;;14.23;92.86;99182.25;10395383;28;20132;-69
2023/10/24 00:49:17;;;;;;;3.58;2.28;;;;;;;14.26;93.05;99190.78;10398761;28;20131;-69
2023/10/24 00:54:18;;;;;;;3.50;2.55;;;;;;;14.30;92.83;99180.53;10394640;28;20529;-70
2023/10/24 00:59:22;;;;;;;4.85;2.58;;;;;;;14.33;93.20;99169.50;10399050;28;20057;-69
2023/10/24 01:04:24;;;;;;;4.10;2.63;;;;;;;14.32;92.74;99183.88;10397751;28;20577;-68
2023/10/24 01:09:25;;;;;;;5.88;3.70;;;;;;;14.32;92.70;99186.53;10399123;28;20448;-69
2023/10/24 01:14:27;;;;;;;5.15;3.92;;;;;;;14.29;92.81;99177.03;10395261;28;20187;-68
2023/10/24 01:19:28;;;;;;;5.28;3.63;;;;;;;14.29;93.08;99152.94;10400133;28;20080;-68
2023/10/24 01:24:30;;;;;;;6.10;4.00;;;;;;;14.23;93.06;99148.31;10401606;28;20246;-71
2023/10/24 01:29:32;;;;;;;6.47;4.07;;;;;;;14.29;93.08;99158.31;10392770;28;20188;-69
2023/10/24 01:34:33;;;;;;;4.05;3.10;;;;;;;14.31;93.22;99161.63;10394065;28;20105;-69
2023/10/24 01:39:35;;;;;;;4.32;3.45;;;;;;;14.37;94.04;99164.63;10397494;28;20167;-69
2023/10/24 01:44:36;;;;;;;5.40;4.47;;;;;;;14.37;93.05;99186.06;10387134;28;20449;-72
2023/10/24 01:49:38;;;;;;;4.90;3.80;;;;;;;14.33;93.47;99169.50;10390003;28;20053;-71
2023/10/24 01:54:39;;;;;;;5.80;3.85;;;;;;;14.31;93.86;99155.44;10394157;28;20048;-71
2023/10/24 01:59:41;;;;;;;3.83;3.53;;;;;;;14.33;93.75;99167.63;10392785;28;20049;-69
2023/10/24 02:04:42;;;;;;;5.45;3.50;;;;;;;14.36;94.19;99161.09;10399272;28;20060;-70
2023/10/24 02:09:44;;;;;;;4.15;3.38;;;;;;;14.36;94.13;99158.44;10391957;28;20036;-69
2023/10/24 02:14:45;;;;;;;3.97;3.47;;;;;;;14.35;94.52;99151.41;10392437;28;20045;-69
2023/10/24 02:19:47;;;;;;;4.53;3.60;;;;;;;14.34;94.54;99144.41;10396123;28;20060;-69
2023/10/24 02:24:49;;;;;;;4.85;3.63;;;;;;;14.31;94.53;99144.75;10392399;28;20057;-70
2023/10/24 02:29:51;;;;;;;4.60;3.38;;;;;;;14.31;95.11;99121.47;10393186;28;20140;-70
2023/10/24 02:34:52;;;;;;;4.47;3.58;;;;;;;14.35;94.63;99119.28;10395426;28;20110;-69
2023/10/24 02:39:53;;;;;;;5.18;3.30;;;;;;;14.36;95.13;99120.13;10388550;28;20164;-69
2023/10/24 02:44:55;;;;;;;7.63;4.20;;;;;;;14.36;94.71;99134.34;10398423;28;20301;-68
2023/10/24 02:49:56;;;;;;;4.40;3.97;;;;;;;14.31;95.14;99105.41;10391232;28;20052;-70
2023/10/24 02:54:58;;;;;;;6.13;3.78;;;;;;;14.31;95.09;99108.09;10394097;28;20826;-69
2023/10/24 02:59:59;;;;;;;4.72;4.22;;;;;;;14.32;95.21;99130.34;10390685;28;20064;-70
2023/10/24 03:05:01;;;;;;;4.60;3.60;;;;;;;14.32;94.99;99135.69;10394575;28;20128;-69
2023/10/24 03:10:02;;;;;;;4.95;4.18;;;;;;;14.32;94.88;99135.69;10392504;28;20140;-69
2023/10/24 03:15:05;;;;;;;4.55;3.75;;;;;;;14.30;95.62;99130.50;10397780;28;20432;-70
2023/10/24 03:20:08;;;;;;;4.57;3.53;;;;;;;14.32;95.47;99122.31;10390424;28;20057;-70
2023/10/24 03:25:09;;;;;;;4.90;3.97;;;;;;;14.31;95.74;99128.69;10389684;28;20111;-70
2023/10/24 03:30:11;;;;;;;4.45;3.63;;;;;;;14.35;95.59;99140.69;10388872;28;20331;-69
2023/10/24 03:35:14;;;;;;;4.65;3.28;;;;;;;14.34;95.64;99133.69;10393618;28;20686;-69
2023/10/24 03:40:16;;;;;;;4.80;3.55;;;;;;;14.35;95.72;99154.06;10413832;28;20084;-69
2023/10/24 03:45:17;;;;;;;6.28;3.65;;;;;;;14.39;95.94;99151.91;10394947;28;20051;-69
2023/10/24 03:50:18;;;;;;;5.65;3.42;;;;;;;14.36;96.05;99153.06;10398345;28;20532;-70
2023/10/24 03:55:20;;;;;;;4.55;4.15;;;;;;;14.39;96.28;99152.72;10399369;28;20406;-69
2023/10/24 04:00:22;;;;;;;4.68;3.55;;;;;;;14.42;96.44;99152.38;10397490;28;20154;-69
2023/10/24 04:05:23;;;;;;;5.18;3.45;;;;;;;14.47;96.80;99151.84;10398927;28;20056;-69
2023/10/24 04:10:25;;;;;;;6.50;3.63;;;;;;;14.41;96.89;99149.88;10396761;28;20094;-70
2023/10/24 04:15:27;;;;;;;4.05;3.65;;;;;;;14.37;96.35;99137.88;10391653;28;20061;-70
2023/10/24 04:20:30;;;;;;;4.32;3.92;;;;;;;14.39;97.04;99151.91;10395717;28;20445;-70
2023/10/24 04:25:32;;;;;;;5.20;4.57;;;;;;;14.31;96.88;99142.06;10399673;28;20509;-70
2023/10/24 04:30:33;;;;;;;3.88;3.50;;;;;;;14.36;97.48;99158.44;10386379;28;20068;-68
2023/10/24 04:35:43;;;;;;;5.20;4.65;;;;;;;14.22;97.25;99146.63;10402864;28;20093;-70
2023/10/24 04:40:44;;;;;;;5.82;4.07;;;;;;;14.27;97.40;99154.13;10391944;28;20405;-70
2023/10/24 04:45:46;;;;;;;6.85;4.18;;;;;;;14.27;97.48;99151.44;10399319;28;20353;-70
2023/10/24 04:50:48;;;;;;;6.03;4.20;;;;;;;14.27;97.75;99159.47;10397844;28;20140;-71
2023/10/24 04:55:50;;;;;;;5.22;4.72;;;;;;;14.24;97.98;99149.13;10389520;28;20530;-72
2023/10/24 05:00:52;;;;;;;4.20;3.80;;;;;;;14.27;98.16;99138.88;10395253;28;20056;-71
2023/10/24 05:05:54;;;;;;;5.32;4.07;;;;;;;14.29;98.03;99130.69;10394007;28;20576;-71
2023/10/24 05:10:56;;;;;;;5.75;4.82;;;;;;;14.26;97.91;99109.63;10393547;28;20059;-70
2023/10/24 05:15:57;;;;;;;5.53;4.90;;;;;;;14.24;97.94;99106.31;10401094;28;20537;-73
2023/10/24 05:20:59;;;;;;;6.13;4.57;;;;;;;14.23;98.11;99104.63;10401315;28;20166;-73
2023/10/24 05:26:00;;;;;;;4.75;4.22;;;;;;;14.23;98.06;99093.91;10398403;28;20060;-72
2023/10/24 05:31:08;;;;;;;4.85;4.13;;;;;;;14.30;98.33;99100.25;10398981;28;20064;-71
2023/10/24 05:36:09;;;;;;;7.68;4.53;;;;;;;14.32;98.31;99082.16;10401567;28;20068;-70
2023/10/24 05:41:11;;;;;;;5.07;4.47;;;;;;;14.30;98.12;99054.75;10396499;28;20690;-71
2023/10/24 05:46:13;;;;;;;6.22;4.40;;;;;;;14.33;97.97;99035.66;10398968;28;20052;-70
2023/10/24 05:51:29;;;;;;;6.70;4.88;;;;;;;14.39;98.19;99034.09;10389337;28;20053;-73
2023/10/24 05:56:32;;;;;;;4.68;4.28;;;;;;;14.39;98.51;99045.63;10401351;28;20470;-70
2023/10/24 06:01:33;;;;;;;6.20;4.70;;;;;;;14.42;98.07;99047.97;10401148;28;20091;-70
2023/10/24 06:06:35;;;;;;;6.13;4.70;;;;;;;14.41;98.02;99061.53;10395076;28;20056;-72
2023/10/24 06:11:36;;;;;;;5.93;5.32;;;;;;;14.39;98.33;99071.59;10378454;28;20891;-70
2023/10/24 06:16:38;;;;;;;6.03;4.80;;;;;;;14.32;98.24;99066.09;10393911;28;20072;-69
2023/10/24 06:21:40;;;;;;;7.10;5.68;;;;;;;14.29;98.30;99063.78;10375854;28;20052;-70
2023/10/24 06:26:41;;;;;;;6.65;5.45;;;;;;;14.30;98.57;99071.63;10379830;28;20071;-69
2023/10/24 06:31:43;;;;;;;7.18;5.55;;;;;;;14.37;98.46;99082.47;10389870;28;20118;-70
2023/10/24 06:36:44;;;;;;;5.75;4.97;;;;;;;14.33;98.55;99078.47;10387513;28;20310;-71
2023/10/24 06:41:46;;;;;;;9.45;6.43;;;;;;;14.30;98.96;99068.13;10382439;28;20063;-70
2023/10/24 06:46:48;;;;;;;7.70;6.07;;;;;;;14.32;98.05;99091.03;10382938;28;20136;-71
2023/10/24 06:51:50;;;;;;;6.63;5.40;;;;;;;14.33;98.11;99099.88;10388818;28;20183;-70
2023/10/24 06:56:51;;;;;;;8.25;6.40;;;;;;;14.27;97.61;99100.59;10387078;28;20528;-71
2023/10/24 07:01:53;;;;;;;7.43;6.10;;;;;;;14.17;98.25;99108.00;10388357;28;20136;-70
2023/10/24 07:06:54;;;;;;;8.40;5.97;;;;;;;14.09;98.82;99114.22;10387604;28;20338;-70
2023/10/24 07:11:56;;;;;;;11.45;5.85;;;;;;;14.07;99.05;99101.03;10392821;28;20659;-71
2023/10/24 07:16:57;;;;;;;6.68;5.85;;;;;;;14.14;98.99;99091.31;10395137;28;20410;-71
2023/10/24 07:21:58;;;;;;;7.97;6.25;;;;;;;14.12;98.73;99087.13;10396047;28;20513;-71
2023/10/24 07:27:00;;;;;;;9.52;6.85;;;;;;;14.12;98.44;99077.25;10392944;28;21115;-68
2023/10/24 07:32:01;;;;;;;8.50;6.25;;;;;;;14.10;98.46;99068.56;10397197;28;20044;-70
2023/10/24 07:37:03;;;;;;;8.40;6.85;;;;;;;14.05;98.52;99081.66;10391908;28;20514;-69
2023/10/24 07:42:05;;;;;;;7.60;6.57;;;;;;;14.04;98.83;99085.31;10393008;28;20504;-69
2023/10/24 07:47:07;;;;;;;8.30;6.30;;;;;;;14.09;99.50;99085.63;10392591;28;20056;-71
2023/10/24 07:52:09;;;;;;;7.60;5.80;;;;;;;14.10;100.00;99075.78;10397901;28;20431;-71
2023/10/24 07:57:12;;;;;;;8.15;5.85;;;;;;;14.06;99.23;99056.53;10395556;28;20071;-70
2023/10/24 08:02:13;;;;;;;6.63;5.97;;;;;;;14.05;99.81;99060.25;10396892;28;20560;-70
2023/10/24 08:07:15;;;;;;;7.95;6.03;;;;;;;14.17;100.00;99060.66;10394952;28;20084;-70
2023/10/24 08:12:16;;;;;;;7.18;6.43;;;;;;;14.20;99.61;99048.78;10394780;28;20336;-69
2023/10/24 08:17:18;;;;;;;8.25;5.55;;;;;;;14.28;100.00;99054.09;10389146;28;20525;-71
2023/10/24 08:22:19;;;;;;;8.30;5.78;;;;;;;14.33;100.00;99065.09;10392712;28;20049;-70
2023/10/24 08:27:21;;;;;;;7.90;6.63;;;;;;;14.32;100.00;99076.78;10397814;28;20191;-70
2023/10/24 08:32:22;;;;;;;9.68;6.70;;;;;;;14.31;100.00;99075.16;10393671;28;21134;-70
2023/10/24 08:37:24;;;;;;;8.25;6.28;;;;;;;14.33;100.00;99106.06;10397011;28;20064;-71
2023/10/24 08:42:26;;;;;;;9.35;7.90;;;;;;;14.29;100.00;99101.25;10397804;28;20185;-70
2023/10/24 08:47:29;;;;;;;9.48;8.52;;;;;;;14.22;100.00;99111.00;10392542;28;20057;-71
2023/10/24 08:52:31;;;;;;;10.43;8.20;;;;;;;14.10;100.00;99108.69;10396496;28;20482;-70
2023/10/24 08:57:38;;;;;;;10.82;8.23;;;;;;;14.05;100.00;99108.41;10394267;28;20125;-72
2023/10/24 09:02:44;;;;;;;10.48;8.40;;;;;;;14.07;100.00;99109.06;10400631;28;20060;-71
2023/10/24 09:07:46;;;;;;;9.30;8.50;;;;;;;14.00;100.00;99100.06;10389384;28;20065;-72
2023/10/24 09:12:53;;;;;;;12.60;9.43;;;;;;;14.01;100.00;99111.59;10393013;28;20041;-70
2023/10/24 09:17:55;;;;;;;10.35;9.38;;;;;;;13.94;100.00;99101.56;10393408;28;20059;-70
2023/10/24 09:23:08;;;;;;;8.95;8.15;;;;;;;13.96;100.00;99101.41;10398777;28;20829;-71
2023/10/24 09:28:21;;;;;;;8.93;8.13;;;;;;;13.96;100.00;99098.72;10401658;28;20049;-71
2023/10/24 09:33:27;;;;;;;8.35;7.55;;;;;;;14.00;100.00;99094.69;10382733;28;20060;-73
2023/10/24 09:38:30;;;;;;;9.45;8.20;;;;;;;13.96;100.00;99091.56;10393061;28;20044;-71
2023/10/24 09:43:34;;;;;;;9.43;8.60;;;;;;;13.99;100.00;99076.16;10406501;28;20067;-72
2023/10/24 09:48:37;;;;;;;8.27;7.53;;;;;;;14.05;100.00;99070.94;10429964;28;20150;-71
2023/10/24 09:53:38;;;;;;;8.07;7.28;;;;;;;14.04;100.00;99074.63;10419424;28;20394;-71
2023/10/24 09:58:45;;;;;;;7.53;6.80;;;;;;;14.06;100.00;99066.41;10406338;28;20067;-71
2023/10/24 10:03:49;;;;;;;11.02;7.63;;;;;;;14.01;100.00;99050.88;10399625;28;20491;-71
2023/10/24 10:08:54;;;;;;;7.60;6.93;;;;;;;14.06;100.00;99058.38;10404567;28;20052;-72
2023/10/24 10:14:37;;;;;;;10.95;9.85;;;;;;;14.15;100.00;99060.00;10393325;28;20074;-72
2023/10/24 10:19:56;;;;;;;9.57;7.43;;;;;;;14.15;100.00;99054.66;10392302;28;20067;-71
2023/10/24 10:25:10;;;;;;;7.60;6.90;;;;;;;14.05;100.00;99043.34;10393279;28;20072;-71
2023/10/24 10:30:33;;;;;;;8.60;7.80;;;;;;;14.04;100.00;99031.81;10394359;28;20131;-70
2023/10/24 10:35:58;;;;;;;8.32;7.53;;;;;;;14.04;100.00;99031.00;10392635;28;20059;-69
2023/10/24 10:41:22;;;;;;;8.07;7.30;;;;;;;14.06;100.00;99027.09;10391222;28;20052;-71
2023/10/24 10:46:26;;;;;;;8.88;7.97;;;;;;;14.13;100.00;99028.06;10394586;28;20392;-72
2023/10/24 10:51:30;;;;;;;8.30;7.60;;;;;;;14.17;100.00;99014.34;10408750;28;21977;-73
2023/10/24 10:56:35;;;;;;;;;;;;;;;14.09;100.00;99013.38;10406646;28;20104;-73
2023/10/24 11:01:45;;;;;;;7.53;6.70;;;;;;;14.10;100.00;99012.38;10402296;28;20264;-71
2023/10/24 11:06:53;;;;;;;7.10;6.45;;;;;;;14.09;100.00;99016.06;10404672;28;20064;-74
2023/10/24 11:12:18;;;;;;;7.05;6.45;;;;;;;14.04;100.00;98998.88;10406985;28;20060;-72
2023/10/24 11:17:20;;;;;;;9.43;8.45;;;;;;;14.16;100.00;99018.88;10401813;28;20061;-73
2023/10/24 11:22:23;;;;;;;8.90;7.95;;;;;;;14.09;100.00;99008.03;10405583;28;20049;-72
2023/10/24 11:27:26;;;;;;;8.13;7.43;;;;;;;14.06;100.00;99000.34;10399936;28;20546;-72
2023/10/24 11:32:30;;;;;;;8.30;7.43;;;;;;;14.10;100.00;98999.00;10396570;28;20230;-70
2023/10/24 11:37:32;;;;;;;9.85;8.85;;;;;;;14.00;100.00;98971.63;10400900;28;20059;-71
2023/10/24 11:42:34;;;;;;;9.23;8.02;;;;;;;14.15;100.00;98993.94;10349835;22;20171;-60
2023/10/24 11:47:36;;;;;;;9.73;8.77;;;;;;;14.08;100.00;98984.13;10275244;28;20132;-61
2023/10/24 11:52:37;;;;;;;8.63;7.80;;;;;;;14.14;100.00;98989.63;10300615;28;20050;-60
2023/10/24 11:57:40;;;;;;;10.07;9.18;;;;;;;14.09;100.00;98993.81;10259798;28;20065;-62
2023/10/24 12:02:42;;;;;;;10.23;9.15;;;;;;;14.06;100.00;98991.50;10298773;28;20084;-64
2023/10/24 12:07:52;;;;;;;9.10;8.30;;;;;;;14.11;100.00;98989.97;10246770;28;20141;-64
2023/10/24 12:12:56;;;;;;;9.77;7.50;;;;;;;14.04;100.00;98978.31;10294204;28;20100;-61
2023/10/24 12:18:04;;;;;;;7.78;7.10;;;;;;;14.18;100.00;98986.56;10268260;28;20053;-61
2023/10/24 12:23:05;;;;;;;8.73;7.25;;;;;;;14.23;100.00;98973.47;10291188;28;20034;-61
2023/10/24 12:28:07;;;;;;;7.82;7.13;;;;;;;14.15;100.00;98972.53;10304756;28;20064;-60
2023/10/24 12:33:08;;;;;;;8.35;6.05;;;;;;;14.18;100.00;98962.50;10297521;28;20058;-61
2023/10/24 12:38:10;;;;;;;8.88;7.50;;;;;;;14.17;100.00;98958.13;10298056;28;20054;-61
2023/10/24 12:43:11;;;;;;;7.95;7.03;;;;;;;14.20;100.00;98960.47;10294293;28;20263;-61
2023/10/24 12:48:16;;;;;;;7.28;5.65;;;;;;;14.23;100.00;98957.41;10286134;28;20058;-64
2023/10/24 12:53:21;;;;;;;5.60;5.05;;;;;;;14.31;100.00;98962.72;10274699;28;20447;-63
2023/10/24 12:58:23;;;;;;;7.60;5.90;;;;;;;14.33;100.00;98958.03;10284915;28;20057;-61
2023/10/24 13:03:25;;;;;;;6.80;5.13;;;;;;;14.34;100.00;98957.03;10280313;28;20793;-60
2023/10/24 13:08:26;;;;;;;7.40;5.10;;;;;;;14.38;100.00;98947.63;10256992;28;20558;-61
2023/10/24 13:13:28;;;;;;;5.38;3.85;;;;;;;14.44;100.00;98946.91;10284001;28;20061;-62
2023/10/24 13:18:30;;;;;;;4.00;3.50;;;;;;;14.46;100.00;98944.88;10282615;28;20553;-61
2023/10/24 13:23:31;;;;;;;5.82;4.00;;;;;;;14.53;100.00;98946.81;10284129;28;20588;-61
2023/10/24 13:28:33;;;;;;;4.65;3.50;;;;;;;14.55;100.00;98940.28;10277531;28;20400;-61
2023/10/24 13:33:36;;;;;;;4.00;3.00;;;;;;;14.59;100.00;98938.06;10269279;28;20414;-61
2023/10/24 13:38:58;;;;;;;4.47;3.10;;;;;;;14.61;100.00;98928.03;10268748;28;20901;-66
2023/10/24 13:44:00;;;;;;;4.00;2.75;;;;;;;14.63;100.00;98928.69;10281494;28;20164;-61
2023/10/24 13:49:03;;;;;;;4.45;3.03;;;;;;;14.62;100.00;98927.00;10273503;28;20085;-61
2023/10/24 13:54:04;;;;;;;3.28;2.88;;;;;;;14.66;100.00;98928.31;10262121;28;22294;-61
2023/10/24 13:59:06;;;;;;;4.72;2.75;;;;;;;14.62;100.00;98911.78;10276056;28;20655;-61
2023/10/24 14:04:07;;;;;;;3.47;3.10;;;;;;;14.62;100.00;98916.28;10277484;28;20267;-61
2023/10/24 14:09:09;;;;;;;3.90;2.88;;;;;;;14.62;100.00;98910.94;10279244;28;20073;-61
2023/10/24 14:14:11;;;;;;;5.70;3.35;;;;;;;14.63;100.00;98907.25;10269160;28;20149;-62
2023/10/24 14:19:13;;;;;;;4.00;2.80;;;;;;;14.62;100.00;98902.91;10287340;28;20061;-60
2023/10/24 14:24:16;;;;;;;4.88;3.05;;;;;;;14.66;100.00;98896.19;10264949;28;20054;-61
2023/10/24 14:29:17;;;;;;;3.47;3.20;;;;;;;14.71;100.00;98899.13;10266164;28;20681;-60
2023/10/24 14:34:19;;;;;;;5.32;2.95;;;;;;;14.69;100.00;98890.44;10275052;28;20058;-61
2023/10/24 14:39:21;;;;;;;4.32;3.55;;;;;;;14.70;100.00;98889.44;10273590;28;20157;-61
2023/10/24 14:44:24;;;;;;;4.43;4.03;;;;;;;14.68;100.00;98888.78;10258769;28;20108;-60
2023/10/24 14:49:25;;;;;;;6.15;5.55;;;;;;;14.61;100.00;98883.34;10285888;28;20057;-61
2023/10/24 14:54:27;;;;;;;6.90;6.22;;;;;;;14.64;100.00;98888.31;10280341;28;20137;-62
2023/10/24 14:59:29;;;;;;;8.50;7.80;;;;;;;14.56;100.00;98891.06;10243350;28;20059;-63
2023/10/24 15:04:30;;;;;;;7.40;6.70;;;;;;;14.53;100.00;98890.59;10277208;28;20058;-62
2023/10/24 15:09:32;;;;;;;7.55;6.95;;;;;;;14.52;100.00;98884.41;10284757;28;20522;-64
2023/10/24 15:14:34;;;;;;;8.18;7.47;;;;;;;14.60;100.00;98896.88;10284143;28;20121;-64
2023/10/24 15:19:36;;;;;;;10.55;9.55;;;;;;;14.57;100.00;98902.59;10285500;28;20057;-64
2023/10/24 15:24:37;;;;;;;10.23;9.32;;;;;;;14.56;100.00;98895.56;10261814;28;20065;-64
2023/10/24 15:29:40;;;;;;;10.02;9.07;;;;;;;14.56;100.00;98876.84;10284396;28;20652;-63
2023/10/24 15:34:41;;;;;;;10.35;8.40;;;;;;;14.60;100.00;98867.44;10272734;28;20122;-67
2023/10/24 15:39:45;;;;;;;9.38;8.48;;;;;;;14.54;100.00;98873.53;10291321;28;20068;-68
2023/10/24 15:44:46;;;;;;;9.40;8.60;;;;;;;14.56;100.00;98887.53;10292666;28;20100;-68
2023/10/24 15:49:48;;;;;;;10.18;9.15;;;;;;;14.49;100.00;98888.28;10287575;28;20057;-69
2023/10/24 15:54:50;;;;;;;10.40;9.40;;;;;;;14.49;100.00;98901.66;10284966;28;20105;-67
2023/10/24 15:59:52;;;;;;;9.35;8.55;;;;;;;14.55;100.00;98904.63;10293672;28;20054;-65
2023/10/24 16:04:54;;;;;;;10.00;9.10;;;;;;;14.57;100.00;98908.78;10272311;28;20061;-67
2023/10/24 16:09:56;;;;;;;10.40;9.50;;;;;;;14.59;100.00;98905.91;10282180;28;20108;-69
2023/10/24 16:14:58;;;;;;;10.77;9.77;;;;;;;14.59;100.00;98900.56;10268395;28;20891;-68
2023/10/24 16:19:59;;;;;;;8.85;8.05;;;;;;;14.61;100.00;98891.38;10262254;28;20060;-66
2023/10/24 16:25:02;;;;;;;8.60;7.90;;;;;;;14.66;100.00;98893.50;10265720;28;21396;-66
2023/10/24 16:30:05;;;;;;;8.57;7.78;;;;;;;14.66;100.00;98901.53;10292379;28;20056;-69
2023/10/24 16:35:07;;;;;;;8.15;7.45;;;;;;;14.71;100.00;98906.34;10286405;28;20207;-69
2023/10/24 16:40:10;;;;;;;6.97;6.22;;;;;;;14.70;100.00;98913.56;10268884;28;20054;-66
2023/10/24 16:45:11;;;;;;;8.07;7.38;;;;;;;14.72;100.00;98927.59;10270607;28;20072;-68
2023/10/24 16:50:14;;;;;;;9.10;8.27;;;;;;;14.71;100.00;98928.59;10259114;28;20462;-69
2023/10/24 16:55:16;;;;;;;8.43;7.72;;;;;;;14.67;100.00;98924.63;10269984;28;20191;-67
2023/10/24 17:00:18;;;;;;;8.27;7.43;;;;;;;14.62;100.00;98943.06;10288349;28;20063;-66
2023/10/24 17:05:20;;;;;;;8.10;7.38;;;;;;;14.58;100.00;98941.75;10273592;28;21021;-69
2023/10/24 17:10:22;;;;;;;7.65;6.95;;;;;;;14.50;100.00;98938.13;10251284;28;20061;-65
2023/10/24 17:15:24;;;;;;;8.77;7.25;;;;;;;14.52;100.00;98945.13;10264551;28;20052;-67
2023/10/24 17:20:33;;;;;;;4.88;4.45;;;;;;;14.43;100.00;98953.25;10291597;28;20049;-67
2023/10/24 17:25:35;;;;;;;6.35;4.03;;;;;;;14.39;100.00;98961.81;10288811;28;20058;-71
2023/10/24 17:30:37;;;;;;;3.53;3.17;;;;;;;14.30;100.00;98945.00;10271510;28;20101;-66
2023/10/24 17:35:39;;;;;;;3.30;3.00;;;;;;;14.32;98.27;98959.03;10255271;28;20207;-67
2023/10/24 17:40:42;;;;;;;3.17;2.80;;;;;;;14.29;98.19;98970.09;10287015;28;20058;-66
2023/10/24 17:45:44;;;;;;;2.87;1.90;;;;;;;14.25;98.21;98958.09;10248207;28;20058;-67
2023/10/24 17:50:46;;;;;;;2.00;1.80;;;;;;;14.19;96.76;98950.78;10265177;28;20053;-70
2023/10/24 17:55:48;;;;;;;3.05;1.80;;;;;;;14.17;94.65;98961.63;10272746;28;20214;-67
2023/10/24 18:00:49;;;;;;;1.65;1.25;;;;;;;14.10;94.36;98963.38;10257360;28;20201;-69
2023/10/24 18:05:52;;;;;;;1.38;1.27;;;;;;;14.03;93.95;98960.56;10272420;28;20145;-67
2023/10/24 18:10:55;;;;;;;1.52;1.30;;;;;;;13.97;94.75;98963.97;10271537;28;20065;-70
2023/10/24 18:15:57;;;;;;;2.50;1.57;;;;;;;13.92;94.97;98955.66;10277120;28;20101;-67
2023/10/24 18:20:59;;;;;;;1.70;1.20;;;;;;;13.88;95.65;98951.66;10238305;28;20068;-67
2023/10/24 18:26:04;;;;;;;2.00;1.40;;;;;;;13.91;95.39;98960.16;10282931;28;20365;-67
2023/10/24 18:31:08;;;;;;;1.37;1.27;;;;;;;13.90;95.36;98954.97;10267548;28;20572;-62
2023/10/24 18:36:11;;;;;;;1.70;1.23;;;;;;;13.88;95.49;98957.00;10266109;28;20046;-61
2023/10/24 18:41:13;;;;;;;2.45;1.70;;;;;;;13.84;94.91;98966.38;10279129;28;20058;-68
2023/10/24 18:46:15;;;;;;;2.28;1.50;;;;;;;13.78;94.79;98971.44;10258066;28;20229;-69
2023/10/24 18:51:17;;;;;;;3.55;1.90;;;;;;;13.74;94.86;98978.13;10256470;28;20057;-70
2023/10/24 18:56:20;;;;;;;3.55;2.55;;;;;;;13.70;94.61;98986.69;10255756;28;20241;-67
2023/10/24 19:01:22;;;;;;;3.03;2.83;;;;;;;13.65;94.84;98973.03;10282154;28;20147;-68
2023/10/24 19:06:24;;;;;;;3.03;2.70;;;;;;;13.61;94.29;98978.69;10290413;28;20060;-69
2023/10/24 19:11:26;;;;;;;3.90;2.60;;;;;;;13.56;94.41;98989.09;10279264;28;20606;-67
2023/10/24 19:16:28;;;;;;;3.25;2.95;;;;;;;13.55;94.69;98983.91;10241276;28;20072;-67
2023/10/24 19:21:30;;;;;;;4.18;3.78;;;;;;;13.54;94.98;99006.28;10262981;28;20155;-67
2023/10/24 19:26:33;;;;;;;6.78;4.22;;;;;;;13.51;94.38;99003.97;10270911;28;20081;-67
2023/10/24 19:31:35;;;;;;;5.07;4.57;;;;;;;13.44;94.97;99007.34;10288808;28;20054;-71
2023/10/24 19:36:38;;;;;;;5.10;4.30;;;;;;;13.39;95.25;99015.06;10291506;28;20120;-67
2023/10/24 19:41:40;;;;;;;7.50;5.53;;;;;;;13.40;96.21;99014.03;10285252;28;20054;-68
2023/10/24 19:46:48;;;;;;;6.70;5.70;;;;;;;13.36;96.27;99012.72;10267912;28;20108;-66
2023/10/24 19:51:52;;;;;;;6.72;6.05;;;;;;;13.36;96.98;99011.88;10231864;28;20050;-67
2023/10/24 19:56:54;;;;;;;6.40;5.68;;;;;;;13.37;97.04;99018.91;10257285;28;20889;-68
2023/10/24 20:01:57;;;;;;;7.35;6.20;;;;;;;13.35;97.01;99028.94;10285851;28;20065;-67
2023/10/24 20:07:00;;;;;;;6.00;5.40;;;;;;;13.35;97.11;99034.28;10284744;28;21684;-68
2023/10/24 20:12:02;;;;;;;6.72;6.07;;;;;;;13.29;97.53;99025.06;10284089;28;20215;-69
2023/10/24 20:17:28;;;;;;;6.18;5.57;;;;;;;13.29;96.89;99037.59;10286157;28;20280;-67
2023/10/24 20:22:31;;;;;;;7.20;6.50;;;;;;;13.26;97.15;99038.78;10280999;28;20743;-67
2023/10/24 20:27:34;;;;;;;7.38;6.50;;;;;;;13.23;96.89;99031.09;10287179;28;20077;-67
2023/10/24 20:32:37;;;;;;;7.10;6.00;;;;;;;13.21;97.13;99035.75;10286668;28;24618;-70
2023/10/24 20:37:39;;;;;;;8.85;6.60;;;;;;;13.18;96.95;99034.28;10279449;28;20218;-66
2023/10/24 20:42:41;;;;;;;6.28;5.32;;;;;;;13.16;96.74;99032.78;10268119;28;20058;-66
2023/10/24 20:47:43;;;;;;;6.57;5.28;;;;;;;13.09;97.48;99036.13;10284651;28;20146;-67
2023/10/24 20:52:45;;;;;;;5.22;4.70;;;;;;;13.03;97.24;99027.94;10281089;28;20549;-67
2023/10/24 20:57:46;;;;;;;5.55;4.95;;;;;;;13.05;97.45;99037.47;10304966;28;20554;-67
2023/10/24 21:02:48;;;;;;;4.93;4.53;;;;;;;13.02;96.90;99032.47;10316922;28;20192;-66
2023/10/24 21:07:51;;;;;;;4.72;4.32;;;;;;;13.00;96.49;99041.63;10299829;28;20196;-68
2023/10/24 21:12:52;;;;;;;5.72;4.40;;;;;;;13.00;96.79;99049.66;10312753;28;20050;-67
2023/10/24 21:17:54;;;;;;;4.95;4.10;;;;;;;12.96;95.81;99049.16;10299664;28;20091;-67
2023/10/24 21:22:56;;;;;;;4.57;4.18;;;;;;;12.92;97.06;99042.47;10314726;28;20385;-67
2023/10/24 21:27:57;;;;;;;5.63;4.43;;;;;;;12.93;97.15;99038.00;10310700;28;20057;-65
2023/10/24 21:33:00;;;;;;;5.35;4.43;;;;;;;12.95;96.97;99036.81;10312512;28;20147;-66
2023/10/24 21:38:01;;;;;;;5.30;4.25;;;;;;;12.91;96.95;99036.31;10296485;28;20050;-67
2023/10/24 21:43:04;;;;;;;6.78;4.90;;;;;;;12.87;96.78;99034.16;10311774;28;20053;-67
2023/10/24 21:48:06;;;;;;;4.55;4.15;;;;;;;12.83;96.74;99030.16;10310247;28;20299;-67
2023/10/24 21:53:09;;;;;;;6.03;4.45;;;;;;;12.81;96.40;99029.50;10286157;28;20054;-67
2023/10/24 21:58:10;;;;;;;6.85;4.65;;;;;;;12.84;97.18;99040.66;10309399;28;20050;-66
2023/10/24 22:03:12;;;;;;;7.85;5.03;;;;;;;12.80;96.54;99041.16;10312200;28;20050;-67
2023/10/24 22:08:14;;;;;;;5.30;4.35;;;;;;;12.71;96.05;99035.81;10318386;28;20290;-67
2023/10/24 22:13:16;;;;;;;5.50;3.65;;;;;;;12.60;95.73;99033.50;10306703;28;20521;-67
2023/10/24 22:18:18;;;;;;;4.28;3.88;;;;;;;12.53;95.60;99038.63;10279298;28;20046;-67
2023/10/24 22:23:19;;;;;;;3.35;3.08;;;;;;;12.44;94.85;99033.47;10293960;28;20050;-67
2023/10/24 22:28:21;;;;;;;4.05;3.20;;;;;;;12.36;95.95;99039.66;10311790;28;20069;-67
2023/10/24 22:33:23;;;;;;;3.67;3.38;;;;;;;12.37;96.31;99044.81;10300357;28;20054;-67
2023/10/24 22:38:26;;;;;;;5.10;3.47;;;;;;;12.31;95.36;99037.47;10316070;28;20065;-67
2023/10/24 22:43:28;;;;;;;4.20;3.80;;;;;;;12.28;95.71;99043.13;10326106;28;20066;-67
2023/10/24 22:48:29;;;;;;;4.05;3.38;;;;;;;12.30;95.74;99046.47;10298633;28;20963;-67
2023/10/24 22:53:31;;;;;;;7.90;3.63;;;;;;;12.28;95.87;99047.63;10281413;28;20648;-69
2023/10/24 22:58:33;;;;;;;4.57;3.70;;;;;;;12.23;95.94;99037.44;10306655;28;20046;-65
2023/10/24 23:03:34;;;;;;;4.13;3.72;;;;;;;12.23;95.85;99050.78;10315112;28;20726;-67
2023/10/24 23:08:37;;;;;;;3.72;3.05;;;;;;;12.27;96.03;99049.47;10325971;28;20587;-67
2023/10/24 23:13:41;;;;;;;3.92;3.35;;;;;;;12.26;95.63;99055.78;10313821;28;20273;-67
2023/10/24 23:18:43;;;;;;;;;;;;;;;12.25;96.28;99055.94;10321301;28;20077;-66
2023/10/24 23:23:50;;;;;;;6.18;4.03;;;;;;;12.26;96.38;99055.78;10325734;28;19926;-67